Time;durP1;ratioP1;P1;durP2;ratioP2;P2;SDS_P1;SDS_P2;PMS_P1;PMS_P2;Temp;Humidity;BMP_temperature;BMP_pressure;BME280_temperature;BME280_humidity;BME280_pressure;Samples;Min_cycle;Max_cycle;Signal;HPM_P1;HPM_P2
2021/06/28 00:00:29;;;;;;;3.95;3.28;;;20.60;64.20;;;;;;4981327;28;20449;-74
2021/06/28 00:02:55;;;;;;;3.67;3.38;;;20.60;64.00;;;;;;4983290;28;20026;-75
2021/06/28 00:05:21;;;;;;;5.00;3.80;;;20.70;63.70;;;;;;4983026;28;20035;-75
2021/06/28 00:07:48;;;;;;;3.63;3.33;;;20.90;63.20;;;;;;4982735;28;20048;-75
2021/06/28 00:10:17;;;;;;;7.05;3.97;;;21.00;63.30;;;;;;4982481;28;20022;-75
2021/06/28 00:12:43;;;;;;;4.57;3.72;;;21.10;63.20;;;;;;4983244;28;20043;-75
2021/06/28 00:15:12;;;;;;;4.97;3.72;;;21.10;63.70;;;;;;4982502;28;20085;-75
2021/06/28 00:17:38;;;;;;;4.88;3.80;;;21.20;63.50;;;;;;4980370;28;20030;-75
2021/06/28 00:20:06;;;;;;;5.10;3.45;;;21.20;63.00;;;;;;4982256;28;20034;-75
2021/06/28 00:22:31;;;;;;;6.25;4.95;;;21.20;62.90;;;;;;4982536;28;20038;-75
2021/06/28 00:24:57;;;;;;;6.40;4.18;;;21.20;63.00;;;;;;4982674;28;20035;-75
2021/06/28 00:27:23;;;;;;;3.85;3.50;;;21.20;63.00;;;;;;4982612;28;20089;-75
2021/06/28 00:29:50;;;;;;;3.67;3.38;;;21.20;63.30;;;;;;4982581;28;20029;-72
2021/06/28 00:32:16;;;;;;;4.55;3.97;;;21.20;63.40;;;;;;4981506;28;20103;-72
2021/06/28 00:34:42;;;;;;;5.68;4.97;;;21.20;63.60;;;;;;4982546;28;20569;-72
2021/06/28 00:37:08;;;;;;;4.95;3.90;;;21.20;63.50;;;;;;4980509;28;20050;-72
2021/06/28 00:39:34;;;;;;;3.75;3.28;;;21.30;62.80;;;;;;4979649;28;20110;-72
2021/06/28 00:41:59;;;;;;;4.63;3.90;;;21.40;62.90;;;;;;4982081;28;20034;-71
2021/06/28 00:44:25;;;;;;;4.63;4.15;;;21.30;63.20;;;;;;4982368;28;20065;-72
2021/06/28 00:46:50;;;;;;;5.13;3.95;;;21.40;63.00;;;;;;4981367;28;20494;-72
2021/06/28 00:49:16;;;;;;;4.68;3.88;;;21.30;63.10;;;;;;4981462;28;20042;-72
2021/06/28 00:51:41;;;;;;;3.75;3.40;;;21.30;63.20;;;;;;4982285;28;20040;-72
2021/06/28 00:54:07;;;;;;;5.57;4.95;;;21.30;63.80;;;;;;4979675;28;20031;-72
2021/06/28 00:56:33;;;;;;;4.82;4.30;;;21.40;64.00;;;;;;4982326;28;20054;-72
2021/06/28 00:59:01;;;;;;;3.65;3.05;;;21.30;63.80;;;;;;4981178;28;20071;-72
2021/06/28 01:01:27;;;;;;;4.18;3.58;;;21.30;63.90;;;;;;4982031;28;20177;-72
2021/06/28 01:03:52;;;;;;;2.85;2.65;;;21.30;63.80;;;;;;4980731;28;20101;-72
2021/06/28 01:06:18;;;;;;;4.50;3.47;;;21.30;64.00;;;;;;4982367;28;20452;-72
2021/06/28 01:08:44;;;;;;;4.28;3.88;;;21.20;64.20;;;;;;4980822;28;20061;-72
2021/06/28 01:11:10;;;;;;;3.90;3.50;;;21.00;64.20;;;;;;4982555;28;20163;-72
2021/06/28 01:13:40;;;;;;;4.53;3.35;;;21.00;64.50;;;;;;4981319;28;20023;-72
2021/06/28 01:16:06;;;;;;;4.13;3.72;;;21.00;64.20;;;;;;4980478;28;20022;-72
2021/06/28 01:18:32;;;;;;;3.78;2.88;;;21.00;64.60;;;;;;4980763;28;20032;-72
2021/06/28 01:21:00;;;;;;;3.92;3.50;;;20.90;65.10;;;;;;4981683;28;20034;-72
2021/06/28 01:23:28;;;;;;;3.40;2.72;;;21.00;64.50;;;;;;4981479;28;20035;-72
2021/06/28 01:25:57;;;;;;;3.25;2.95;;;20.90;64.90;;;;;;4981478;28;20026;-72
2021/06/28 01:28:23;;;;;;;5.45;3.75;;;20.90;64.50;;;;;;4981262;28;20462;-72
2021/06/28 01:30:51;;;;;;;3.85;2.63;;;20.90;64.80;;;;;;4980119;28;20058;-72
2021/06/28 01:33:17;;;;;;;3.15;2.90;;;21.00;64.50;;;;;;4980885;28;20053;-72
2021/06/28 01:35:43;;;;;;;3.08;2.78;;;20.90;64.10;;;;;;4980915;28;20605;-72
2021/06/28 01:38:09;;;;;;;2.83;2.60;;;20.80;64.70;;;;;;4981543;28;20121;-72
2021/06/28 01:40:36;;;;;;;2.40;2.20;;;20.70;65.10;;;;;;4980984;28;20075;-72
2021/06/28 01:43:03;;;;;;;3.42;3.13;;;20.60;64.70;;;;;;4980107;28;20035;-72
2021/06/28 01:45:28;;;;;;;3.85;2.65;;;20.70;64.70;;;;;;4981063;28;20490;-72
2021/06/28 01:47:57;;;;;;;2.88;2.63;;;20.70;65.00;;;;;;4981160;28;20027;-72
2021/06/28 01:50:25;;;;;;;3.90;2.55;;;20.70;65.00;;;;;;4980172;28;20022;-72
2021/06/28 01:52:51;;;;;;;2.78;2.22;;;20.60;64.90;;;;;;4981133;28;20054;-72
2021/06/28 01:55:18;;;;;;;2.53;2.33;;;20.70;65.20;;;;;;4981301;28;20030;-72
2021/06/28 01:57:49;;;;;;;3.83;3.17;;;20.70;65.30;;;;;;4980880;28;20038;-72
2021/06/28 02:00:18;;;;;;;3.03;2.50;;;20.70;65.00;;;;;;4978427;28;20635;-72
2021/06/28 02:03:02;;;;;;;3.25;2.90;;;20.70;65.20;;;;;;4980594;28;20038;-72
2021/06/28 02:05:29;;;;;;;3.92;3.00;;;20.70;64.80;;;;;;4981479;28;20030;-71
2021/06/28 02:07:55;;;;;;;3.15;2.75;;;20.70;64.80;;;;;;4978402;28;20409;-71
2021/06/28 02:10:21;;;;;;;4.68;2.72;;;20.70;65.10;;;;;;4980869;28;20026;-72
2021/06/28 02:12:46;;;;;;;2.58;2.38;;;20.60;65.20;;;;;;4979935;28;20114;-72
2021/06/28 02:15:23;;;;;;;5.78;2.92;;;20.60;65.50;;;;;;4979184;28;20030;-72
2021/06/28 02:17:49;;;;;;;3.35;3.03;;;20.50;65.60;;;;;;4980016;28;20594;-72
2021/06/28 02:20:15;;;;;;;3.08;2.78;;;20.50;65.60;;;;;;4979918;28;20035;-72
2021/06/28 02:22:41;;;;;;;4.15;2.50;;;20.60;65.30;;;;;;4980911;28;20030;-72
2021/06/28 02:25:09;;;;;;;5.35;2.83;;;20.70;65.20;;;;;;4980569;28;20034;-72
2021/06/28 02:27:35;;;;;;;2.53;2.33;;;20.60;65.30;;;;;;4981273;28;20988;-72
2021/06/28 02:30:01;;;;;;;2.95;2.08;;;20.70;65.50;;;;;;4979253;28;20394;-72
2021/06/28 02:32:26;;;;;;;3.75;3.45;;;20.70;65.30;;;;;;4980010;28;20031;-72
2021/06/28 02:34:52;;;;;;;3.13;2.90;;;20.70;65.40;;;;;;4980656;28;20031;-72
2021/06/28 02:37:17;;;;;;;4.13;3.67;;;20.70;65.90;;;;;;4979673;28;20072;-72
2021/06/28 02:39:43;;;;;;;3.42;2.85;;;20.80;65.30;;;;;;4979551;28;20069;-72
2021/06/28 02:42:08;;;;;;;3.47;3.00;;;20.90;65.50;;;;;;4980419;28;20516;-72
2021/06/28 02:44:34;;;;;;;2.63;2.42;;;21.00;65.70;;;;;;4980622;28;20031;-72
2021/06/28 02:46:59;;;;;;;3.20;2.38;;;21.00;65.60;;;;;;4979005;28;20035;-72
2021/06/28 02:49:25;;;;;;;3.65;2.72;;;21.10;65.50;;;;;;4979995;28;20019;-72
2021/06/28 02:51:50;;;;;;;3.80;2.53;;;21.10;64.90;;;;;;4978230;28;20101;-72
2021/06/28 02:54:16;;;;;;;4.00;2.85;;;21.20;64.70;;;;;;4980978;28;20421;-72
2021/06/28 02:56:42;;;;;;;3.53;3.22;;;21.20;64.30;;;;;;4980117;28;20026;-72
2021/06/28 02:59:11;;;;;;;5.75;3.50;;;21.20;64.50;;;;;;4980058;28;20355;-72
2021/06/28 03:01:36;;;;;;;3.17;2.63;;;21.20;64.40;;;;;;4978849;28;20042;-72
2021/06/28 03:04:03;;;;;;;2.67;2.47;;;21.20;64.70;;;;;;4979121;28;20022;-72
2021/06/28 03:06:28;;;;;;;3.45;2.92;;;21.20;64.80;;;;;;4980798;28;20035;-72
2021/06/28 03:08:54;;;;;;;4.22;2.92;;;21.00;64.80;;;;;;4979444;28;20081;-72
2021/06/28 03:11:21;;;;;;;3.00;2.67;;;20.90;64.90;;;;;;4982082;28;20030;-72
2021/06/28 03:13:50;;;;;;;4.90;2.90;;;20.80;65.00;;;;;;4984176;28;20066;-72
2021/06/28 03:16:16;;;;;;;4.05;3.38;;;20.80;65.00;;;;;;4983023;28;20481;-72
2021/06/28 03:18:42;;;;;;;2.95;2.65;;;20.70;65.00;;;;;;4983206;28;20026;-72
2021/06/28 03:21:10;;;;;;;3.70;2.63;;;20.80;64.70;;;;;;4983849;28;20413;-72
2021/06/28 03:23:36;;;;;;;3.05;2.75;;;20.80;64.70;;;;;;4982941;28;20485;-72
2021/06/28 03:26:02;;;;;;;4.65;4.25;;;20.80;65.10;;;;;;4983703;28;20042;-72
2021/06/28 03:28:28;;;;;;;3.67;3.15;;;20.70;65.10;;;;;;4983900;28;20363;-72
2021/06/28 03:30:53;;;;;;;7.20;6.47;;;20.70;65.20;;;;;;4982339;28;20570;-72
2021/06/28 03:33:19;;;;;;;7.53;4.50;;;20.80;65.40;;;;;;4981950;28;20065;-72
2021/06/28 03:35:45;;;;;;;5.20;4.32;;;20.80;65.10;;;;;;4983545;28;20394;-72
2021/06/28 03:38:10;;;;;;;3.97;3.03;;;20.80;65.00;;;;;;4982899;28;20031;-72
2021/06/28 03:40:36;;;;;;;3.95;2.50;;;20.70;65.50;;;;;;4983454;28;20396;-72
2021/06/28 03:43:07;;;;;;;10.27;5.30;;;20.70;66.10;;;;;;4982633;28;20424;-72
2021/06/28 03:45:34;;;;;;;5.65;3.60;;;20.60;65.80;;;;;;4984194;28;20679;-72
2021/06/28 03:48:00;;;;;;;5.47;3.05;;;20.70;66.00;;;;;;4982756;28;20038;-72
2021/06/28 03:50:25;;;;;;;5.30;3.08;;;20.60;66.30;;;;;;4983094;28;20035;-72
2021/06/28 03:52:51;;;;;;;4.13;2.80;;;20.60;66.10;;;;;;4982297;28;20433;-72
2021/06/28 03:55:17;;;;;;;3.47;3.17;;;20.50;66.30;;;;;;4984045;28;20037;-72
2021/06/28 03:57:43;;;;;;;7.82;7.05;;;20.40;66.60;;;;;;4983821;28;20077;-71
2021/06/28 04:00:14;;;;;;;6.57;4.18;;;20.50;66.00;;;;;;4982124;28;20065;-72
2021/06/28 04:02:41;;;;;;;6.32;3.63;;;20.60;66.10;;;;;;4982457;28;20397;-72
2021/06/28 04:05:12;;;;;;;8.68;4.78;;;20.70;66.00;;;;;;4983501;28;20023;-72
2021/06/28 04:07:38;;;;;;;8.57;6.78;;;20.70;66.00;;;;;;4982588;28;20508;-72
2021/06/28 04:10:05;;;;;;;7.63;4.28;;;20.70;65.60;;;;;;4981342;28;20031;-72
2021/06/28 04:12:31;;;;;;;11.80;5.45;;;20.70;65.60;;;;;;4982412;28;20045;-72
2021/06/28 04:14:56;;;;;;;7.40;3.45;;;20.70;65.70;;;;;;4980086;28;20486;-71
2021/06/28 04:17:22;;;;;;;5.15;4.10;;;20.70;65.80;;;;;;4982487;28;20045;-72
2021/06/28 04:19:47;;;;;;;11.18;5.45;;;20.70;65.70;;;;;;4982759;28;20027;-72
2021/06/28 04:22:13;;;;;;;9.00;7.82;;;20.70;65.80;;;;;;4979122;28;20038;-71
2021/06/28 04:24:39;;;;;;;5.85;3.92;;;20.70;65.70;;;;;;4981789;28;20120;-71
2021/06/28 04:27:05;;;;;;;8.07;5.07;;;20.80;65.70;;;;;;4981438;28;20125;-72
2021/06/28 04:29:30;;;;;;;22.55;13.95;;;20.80;65.70;;;;;;4982053;28;20121;-72
2021/06/28 04:31:56;;;;;;;8.60;5.43;;;20.90;65.60;;;;;;4982354;28;20065;-72
2021/06/28 04:34:22;;;;;;;6.15;3.30;;;20.90;65.50;;;;;;4982464;28;20038;-72
2021/06/28 04:36:47;;;;;;;6.90;3.85;;;20.90;65.40;;;;;;4982126;28;20066;-72
2021/06/28 04:39:13;;;;;;;15.02;9.65;;;20.90;65.50;;;;;;4982833;28;20340;-72
2021/06/28 04:41:38;;;;;;;7.15;2.70;;;20.90;65.60;;;;;;4981542;28;20395;-74
2021/06/28 04:44:04;;;;;;;6.50;3.58;;;20.90;65.80;;;;;;4981423;28;20042;-72
2021/06/28 04:46:29;;;;;;;8.82;7.07;;;20.90;65.70;;;;;;4981976;28;20041;-73
2021/06/28 04:48:55;;;;;;;6.72;5.82;;;21.00;65.50;;;;;;4981980;28;20019;-73
2021/06/28 04:51:20;;;;;;;16.05;10.60;;;21.10;65.40;;;;;;4983573;28;20485;-73
2021/06/28 04:53:46;;;;;;;16.08;10.45;;;21.20;65.30;;;;;;4981318;28;20065;-73
2021/06/28 04:56:12;;;;;;;12.18;9.75;;;21.30;65.20;;;;;;4982122;28;20046;-73
2021/06/28 04:58:37;;;;;;;6.38;4.10;;;21.40;64.90;;;;;;4980516;28;20501;-73
2021/06/28 05:01:03;;;;;;;6.75;3.78;;;21.40;64.90;;;;;;4981567;28;20136;-73
2021/06/28 05:03:28;;;;;;;7.80;5.07;;;21.50;65.10;;;;;;4982785;28;20018;-73
2021/06/28 05:05:54;;;;;;;11.27;3.58;;;21.50;65.50;;;;;;4982058;28;20951;-73
2021/06/28 05:08:19;;;;;;;7.55;4.25;;;21.60;65.40;;;;;;4982228;28;20026;-73
2021/06/28 05:10:45;;;;;;;9.65;4.40;;;21.60;65.40;;;;;;4980613;28;20441;-73
2021/06/28 05:13:11;;;;;;;10.35;3.95;;;21.70;65.20;;;;;;4980722;28;20077;-71
2021/06/28 05:15:36;;;;;;;11.73;4.55;;;21.70;64.90;;;;;;4978572;28;20062;-70
2021/06/28 05:18:02;;;;;;;12.05;5.72;;;21.60;64.70;;;;;;4980116;28;20074;-69
2021/06/28 05:20:27;;;;;;;7.82;5.30;;;21.60;64.70;;;;;;4980224;28;20469;-70
2021/06/28 05:22:53;;;;;;;8.88;5.32;;;21.50;64.60;;;;;;4979957;28;20026;-69
2021/06/28 05:25:18;;;;;;;7.65;3.13;;;21.50;64.60;;;;;;4980558;28;20030;-69
2021/06/28 05:27:44;;;;;;;14.85;5.13;;;21.50;64.80;;;;;;4980013;28;20323;-70
2021/06/28 05:30:12;;;;;;;6.65;3.22;;;21.50;64.70;;;;;;4980855;28;20038;-69
2021/06/28 05:32:38;;;;;;;7.03;4.07;;;21.70;64.70;;;;;;4980009;28;20030;-69
2021/06/28 05:35:05;;;;;;;8.75;4.25;;;22.00;64.50;;;;;;4980766;28;20109;-69
2021/06/28 05:37:31;;;;;;;11.02;2.97;;;22.40;64.40;;;;;;4981208;28;20027;-70
2021/06/28 05:39:57;;;;;;;12.02;4.57;;;22.50;63.40;;;;;;4980401;28;20037;-70
2021/06/28 05:42:23;;;;;;;8.65;3.97;;;22.40;63.20;;;;;;4981574;28;20038;-71
2021/06/28 05:44:48;;;;;;;8.20;2.80;;;22.40;63.50;;;;;;4980899;28;20446;-70
2021/06/28 05:47:16;;;;;;;8.10;4.15;;;22.20;63.10;;;;;;4980627;28;20106;-70
2021/06/28 05:49:43;;;;;;;5.22;3.28;;;22.20;63.40;;;;;;4981528;28;20121;-70
2021/06/28 05:52:09;;;;;;;15.38;5.40;;;22.10;63.60;;;;;;4981347;28;20042;-70
2021/06/28 05:54:35;;;;;;;10.25;5.63;;;22.10;63.80;;;;;;4981411;28;20031;-70
2021/06/28 05:57:01;;;;;;;8.77;4.28;;;22.10;63.90;;;;;;4980756;28;20034;-70
2021/06/28 05:59:27;;;;;;;11.23;5.13;;;22.10;64.00;;;;;;4979763;28;20469;-70
2021/06/28 06:01:52;;;;;;;15.32;8.18;;;22.20;64.00;;;;;;4980829;28;20038;-70
2021/06/28 06:04:18;;;;;;;11.60;6.65;;;22.20;63.80;;;;;;4979546;28;20031;-70
2021/06/28 06:06:44;;;;;;;6.07;4.47;;;22.30;63.60;;;;;;4995892;28;20264;-70
2021/06/28 06:09:10;;;;;;;18.65;12.45;;;22.50;63.60;;;;;;4995794;28;20154;-70
2021/06/28 06:11:37;;;;;;;4.38;3.80;;;22.60;63.70;;;;;;4980953;28;20068;-71
2021/06/28 06:14:03;;;;;;;8.88;6.35;;;22.80;63.80;;;;;;4994409;28;20190;-71
2021/06/28 06:16:29;;;;;;;7.55;5.35;;;22.90;63.40;;;;;;4981005;28;20034;-71
2021/06/28 06:18:55;;;;;;;6.20;4.70;;;22.90;63.40;;;;;;4980809;28;20516;-71
2021/06/28 06:21:21;;;;;;;7.20;5.63;;;23.10;62.80;;;;;;4979533;28;20042;-71
2021/06/28 06:23:47;;;;;;;12.70;7.40;;;23.30;62.30;;;;;;4994237;28;20027;-71
2021/06/28 06:26:13;;;;;;;6.15;4.80;;;23.50;62.10;;;;;;4978702;28;20038;-70
2021/06/28 06:28:38;;;;;;;5.95;5.00;;;23.80;62.20;;;;;;4976595;28;20032;-71
2021/06/28 06:31:04;;;;;;;8.07;5.00;;;24.10;61.90;;;;;;4979142;28;20038;-71
2021/06/28 06:33:29;;;;;;;5.35;4.53;;;24.30;61.30;;;;;;4979933;28;20030;-71
2021/06/28 06:35:55;;;;;;;8.25;5.82;;;24.40;61.10;;;;;;4979276;28;20057;-71
2021/06/28 06:38:21;;;;;;;5.32;4.55;;;24.40;60.20;;;;;;4979277;28;20081;-71
2021/06/28 06:40:48;;;;;;;6.50;4.03;;;24.30;60.10;;;;;;4978220;28;20030;-71
2021/06/28 06:43:15;;;;;;;4.97;3.83;;;24.30;60.20;;;;;;4979358;28;20026;-71
2021/06/28 06:45:41;;;;;;;4.40;3.95;;;24.20;60.50;;;;;;4980229;28;20533;-70
2021/06/28 06:48:07;;;;;;;6.25;3.85;;;24.20;60.80;;;;;;4978435;28;20038;-72
2021/06/28 06:50:32;;;;;;;4.35;3.53;;;24.30;60.60;;;;;;4980087;28;20038;-72
2021/06/28 06:52:58;;;;;;;7.65;3.40;;;24.30;60.30;;;;;;4978942;28;20121;-72
2021/06/28 06:55:25;;;;;;;7.10;4.03;;;24.40;60.40;;;;;;4980656;28;20023;-72
2021/06/28 06:57:51;;;;;;;7.47;4.88;;;24.50;60.40;;;;;;4995505;28;20038;-72
2021/06/28 07:00:19;;;;;;;4.57;3.70;;;24.70;60.30;;;;;;4980088;28;20037;-70
2021/06/28 07:02:44;;;;;;;6.13;3.80;;;24.70;60.30;;;;;;4995064;28;20082;-69
2021/06/28 07:05:12;;;;;;;7.63;4.82;;;24.70;60.00;;;;;;4992739;28;20520;-70
2021/06/28 07:07:40;;;;;;;4.93;4.22;;;24.50;60.20;;;;;;4979115;28;20402;-70
2021/06/28 07:10:06;;;;;;;3.53;3.10;;;24.60;60.50;;;;;;4980105;28;20022;-69
2021/06/28 07:12:32;;;;;;;11.70;7.82;;;24.60;60.70;;;;;;4979703;28;20019;-70
2021/06/28 07:14:58;;;;;;;5.57;4.82;;;24.70;61.00;;;;;;4979294;28;20437;-70
2021/06/28 07:17:23;;;;;;;10.23;8.27;;;24.90;61.10;;;;;;4980216;28;20030;-71
2021/06/28 07:19:49;;;;;;;8.07;4.10;;;25.00;60.50;;;;;;4979782;28;20031;-70
2021/06/28 07:22:15;;;;;;;4.10;3.08;;;25.20;59.90;;;;;;4994073;28;20050;-69
2021/06/28 07:24:41;;;;;;;9.23;5.00;;;25.30;59.60;;;;;;4980011;28;20310;-70
2021/06/28 07:27:06;;;;;;;4.80;4.38;;;25.50;59.60;;;;;;4978577;28;20022;-70
2021/06/28 07:29:32;;;;;;;4.50;4.07;;;25.70;59.00;;;;;;4979666;28;20031;-69
2021/06/28 07:31:57;;;;;;;4.10;3.38;;;25.90;58.50;;;;;;4979081;28;20149;-69
2021/06/28 07:34:22;;;;;;;3.22;2.97;;;25.90;58.40;;;;;;4980014;28;20042;-69
2021/06/28 07:36:48;;;;;;;3.42;3.13;;;26.10;57.40;;;;;;4978022;28;20030;-69
2021/06/28 07:39:14;;;;;;;6.13;4.13;;;26.30;57.00;;;;;;4979985;28;20031;-70
2021/06/28 07:41:39;;;;;;;4.80;3.58;;;26.40;57.00;;;;;;4995193;28;20031;-71
2021/06/28 07:44:06;;;;;;;5.28;4.53;;;26.60;56.60;;;;;;4979680;28;20030;-69
2021/06/28 07:46:32;;;;;;;4.57;3.97;;;26.80;56.40;;;;;;4980236;28;20025;-70
2021/06/28 07:48:57;;;;;;;4.38;3.97;;;27.10;56.00;;;;;;4976493;28;20389;-71
2021/06/28 07:51:23;;;;;;;6.13;3.78;;;27.20;55.60;;;;;;4979641;28;20474;-72
2021/06/28 07:53:49;;;;;;;4.43;2.88;;;27.30;55.40;;;;;;4979153;28;20121;-71
2021/06/28 07:56:14;;;;;;;5.80;3.17;;;27.40;54.60;;;;;;4979533;28;20031;-70
2021/06/28 07:58:49;;;;;;;2.60;2.40;;;27.40;53.10;;;;;;4983712;28;20097;-71
2021/06/28 08:01:15;;;;;;;6.20;3.42;;;27.20;52.60;;;;;;4997857;28;20048;-69
2021/06/28 08:03:45;;;;;;;5.55;3.40;;;27.10;52.20;;;;;;4983633;28;20031;-72
2021/06/28 08:06:15;;;;;;;4.15;3.63;;;27.00;51.80;;;;;;4996761;28;20042;-70
2021/06/28 08:08:41;;;;;;;7.85;4.60;;;26.80;51.90;;;;;;4983097;28;20041;-70
2021/06/28 08:11:09;;;;;;;4.00;3.60;;;26.80;52.50;;;;;;4982882;28;20093;-72
2021/06/28 08:13:39;;;;;;;6.10;5.15;;;26.90;50.90;;;;;;4997671;28;20556;-71
2021/06/28 08:16:04;;;;;;;3.33;3.00;;;26.90;51.90;;;;;;4983096;28;20034;-72
2021/06/28 08:18:30;;;;;;;5.03;3.47;;;27.10;51.80;;;;;;4982883;28;20037;-72
2021/06/28 08:20:55;;;;;;;6.70;3.78;;;27.20;51.90;;;;;;4982116;28;20560;-71
2021/06/28 08:23:21;;;;;;;3.08;2.35;;;27.30;52.20;;;;;;4982353;28;20027;-71
2021/06/28 08:25:46;;;;;;;4.32;3.40;;;27.40;51.70;;;;;;4983271;28;20118;-71
2021/06/28 08:28:12;;;;;;;5.00;3.00;;;27.60;51.00;;;;;;4998537;28;20038;-71
2021/06/28 08:30:38;;;;;;;2.50;2.30;;;27.70;50.00;;;;;;4982028;28;20494;-71
2021/06/28 08:33:04;;;;;;;5.60;2.42;;;27.60;48.50;;;;;;4982352;28;20462;-71
2021/06/28 08:35:29;;;;;;;6.45;3.15;;;27.60;48.90;;;;;;4982487;28;20034;-71
2021/06/28 08:37:55;;;;;;;3.83;2.78;;;27.50;49.50;;;;;;4982685;28;20030;-71
2021/06/28 08:40:20;;;;;;;3.67;3.38;;;27.60;49.10;;;;;;4981669;28;20038;-71
2021/06/28 08:42:46;;;;;;;5.28;3.92;;;27.50;49.00;;;;;;4980986;28;20402;-71
2021/06/28 08:45:14;;;;;;;4.05;3.75;;;27.40;49.20;;;;;;4983176;28;20030;-70
2021/06/28 08:47:41;;;;;;;4.47;4.18;;;27.40;49.90;;;;;;4981905;28;20482;-71
2021/06/28 08:50:09;;;;;;;6.63;4.15;;;27.60;49.90;;;;;;4995441;28;20129;-71
2021/06/28 08:52:38;;;;;;;7.05;4.28;;;27.70;49.50;;;;;;4981147;28;20433;-70
2021/06/28 08:55:05;;;;;;;9.68;5.28;;;27.80;49.70;;;;;;4982368;28;20027;-70
2021/06/28 08:57:31;;;;;;;5.50;4.85;;;27.80;49.30;;;;;;4982343;28;20038;-71
2021/06/28 08:59:57;;;;;;;6.88;3.90;;;27.90;49.80;;;;;;4980520;28;20031;-72
2021/06/28 09:02:22;;;;;;;5.35;4.70;;;28.10;50.10;;;;;;4979373;28;20034;-73
2021/06/28 09:05:08;;;;;;;4.20;3.90;;;28.30;49.80;;;;;;4982680;28;20041;-73
2021/06/28 09:07:33;;;;;;;4.47;4.05;;;28.50;50.00;;;;;;4979310;28;20047;-73
2021/06/28 09:09:59;;;;;;;5.93;4.88;;;28.70;49.60;;;;;;4980981;28;20039;-73
2021/06/28 09:12:25;;;;;;;5.15;4.75;;;28.80;48.80;;;;;;4980864;28;20106;-73
2021/06/28 09:14:55;;;;;;;8.40;5.10;;;28.80;49.20;;;;;;4997711;28;20054;-73
2021/06/28 09:17:36;;;;;;;7.95;5.18;;;28.80;48.90;;;;;;4995964;28;20092;-73
2021/06/28 09:20:10;;;;;;;6.50;4.70;;;29.00;49.40;;;;;;4981508;28;20038;-73
2021/06/28 09:22:37;;;;;;;5.35;4.20;;;29.00;49.00;;;;;;4981838;28;20155;-73
2021/06/28 09:25:03;;;;;;;7.97;6.55;;;29.00;49.40;;;;;;4982603;28;20072;-73
2021/06/28 09:27:30;;;;;;;5.78;5.25;;;29.10;49.30;;;;;;4981956;28;20022;-73
2021/06/28 09:29:58;;;;;;;7.93;5.22;;;29.30;49.30;;;;;;4982411;28;20030;-73
2021/06/28 09:32:25;;;;;;;5.45;4.30;;;29.40;48.90;;;;;;4981793;28;20037;-73
2021/06/28 09:34:55;;;;;;;7.22;4.95;;;29.50;49.20;;;;;;4997138;28;20109;-73
2021/06/28 09:37:26;;;;;;;5.30;4.82;;;29.70;49.40;;;;;;4981767;28;20110;-73
2021/06/28 09:39:54;;;;;;;6.03;4.32;;;29.80;49.20;;;;;;4996459;28;20038;-73
2021/06/28 09:42:21;;;;;;;5.30;4.68;;;29.90;48.90;;;;;;4980940;28;20081;-73
2021/06/28 09:44:50;;;;;;;5.30;4.90;;;29.90;48.60;;;;;;4981910;28;20027;-73
2021/06/28 09:47:18;;;;;;;4.95;3.90;;;30.00;48.50;;;;;;4980744;28;20022;-73
2021/06/28 09:50:07;;;;;;;7.20;4.72;;;30.00;47.80;;;;;;4980571;28;20158;-73
2021/06/28 09:52:44;;;;;;;5.80;4.55;;;30.00;47.40;;;;;;4981047;28;20037;-73
2021/06/28 09:55:24;;;;;;;4.10;3.83;;;29.90;47.80;;;;;;4981502;28;20035;-73
2021/06/28 09:58:09;;;;;;;7.85;4.50;;;29.90;47.80;;;;;;4995889;28;20022;-73
2021/06/28 10:00:41;;;;;;;5.43;4.72;;;30.10;48.20;;;;;;4996200;28;20023;-73
2021/06/28 10:03:27;;;;;;;5.25;4.85;;;30.20;47.50;;;;;;4981352;28;20436;-73
2021/06/28 10:06:00;;;;;;;5.03;4.10;;;30.20;47.80;;;;;;4995646;28;20088;-73
2021/06/28 10:08:31;;;;;;;4.53;3.83;;;30.00;48.20;;;;;;4981430;28;20057;-73
2021/06/28 10:11:12;;;;;;;4.97;3.75;;;30.10;47.90;;;;;;4980791;28;20023;-73
2021/06/28 10:13:37;;;;;;;3.67;3.38;;;30.00;48.10;;;;;;4981130;28;20841;-73
2021/06/28 10:16:04;;;;;;;3.28;3.00;;;30.10;48.80;;;;;;4981644;28;20034;-73
2021/06/28 10:18:29;;;;;;;4.03;3.53;;;30.40;48.20;;;;;;4981340;28;20445;-73
2021/06/28 10:20:55;;;;;;;4.70;4.40;;;30.60;48.40;;;;;;4979783;28;20027;-73
2021/06/28 10:23:21;;;;;;;3.78;3.45;;;30.80;48.30;;;;;;4980598;28;20516;-74
2021/06/28 10:25:46;;;;;;;10.05;3.85;;;31.00;48.20;;;;;;4979290;28;20035;-75
2021/06/28 10:28:12;;;;;;;4.88;4.43;;;31.30;48.00;;;;;;4980799;28;20030;-75
2021/06/28 10:30:37;;;;;;;4.65;4.20;;;31.60;47.50;;;;;;4979592;28;20022;-75
2021/06/28 10:33:08;;;;;;;4.80;4.40;;;31.50;47.30;;;;;;4980233;28;20141;-75
2021/06/28 10:35:37;;;;;;;53.65;38.70;;;31.30;47.30;;;;;;4980380;28;20544;-75
2021/06/28 10:38:06;;;;;;;42.50;30.23;;;31.30;46.30;;;;;;4980087;28;20045;-75
2021/06/28 10:40:54;;;;;;;7.85;7.05;;;31.00;47.10;;;;;;4980335;28;20559;-75
2021/06/28 10:43:32;;;;;;;7.15;4.55;;;31.00;47.80;;;;;;4979740;28;20049;-75
2021/06/28 10:46:00;;;;;;;5.45;3.83;;;31.20;47.90;;;;;;4980731;28;20366;-75
2021/06/28 10:48:28;;;;;;;4.70;4.15;;;31.40;47.60;;;;;;4978272;28;20019;-75
2021/06/28 10:51:01;;;;;;;4.00;3.60;;;31.40;46.90;;;;;;4980354;28;20027;-75
2021/06/28 10:53:32;;;;;;;4.20;3.88;;;31.30;47.20;;;;;;4980242;28;20037;-75
2021/06/28 10:56:26;;;;;;;6.35;3.78;;;31.20;47.20;;;;;;4980559;28;20023;-75
2021/06/28 10:58:56;;;;;;;7.97;4.32;;;31.00;47.90;;;;;;4979407;28;20022;-75
2021/06/28 11:01:38;;;;;;;3.38;3.08;;;30.70;47.70;;;;;;4979460;28;20121;-75
2021/06/28 11:04:16;;;;;;;4.18;3.83;;;30.80;47.80;;;;;;4979047;28;20095;-75
2021/06/28 11:06:59;;;;;;;5.55;3.65;;;30.90;47.50;;;;;;4980117;28;20081;-75
2021/06/28 11:09:42;;;;;;;4.88;4.40;;;31.00;47.30;;;;;;4980721;28;20027;-75
2021/06/28 11:12:25;;;;;;;6.32;5.10;;;30.90;48.30;;;;;;4980149;28;20027;-75
2021/06/28 11:14:53;;;;;;;5.05;4.57;;;30.90;48.50;;;;;;4980215;28;20042;-75
2021/06/28 11:17:21;;;;;;;4.40;4.00;;;31.10;48.90;;;;;;4979816;28;20018;-75
2021/06/28 11:19:58;;;;;;;5.20;3.88;;;31.20;47.80;;;;;;4979819;28;20042;-75
2021/06/28 11:22:27;;;;;;;4.97;3.72;;;31.30;47.60;;;;;;4979670;28;20033;-75
2021/06/28 11:25:08;;;;;;;4.22;3.92;;;31.30;47.20;;;;;;4978973;28;20019;-75
2021/06/28 11:27:42;;;;;;;4.20;3.90;;;31.50;47.00;;;;;;4979284;28;20090;-75
2021/06/28 11:30:14;;;;;;;5.22;4.70;;;31.60;47.50;;;;;;4995684;28;20053;-75
2021/06/28 11:32:54;;;;;;;4.00;3.70;;;31.60;47.70;;;;;;4982185;28;20109;-75
2021/06/28 11:35:35;;;;;;;4.63;2.97;;;31.90;46.80;;;;;;4983402;28;20077;-75
2021/06/28 11:38:20;;;;;;;4.72;4.22;;;32.10;46.30;;;;;;4983641;28;20035;-75
2021/06/28 11:40:52;;;;;;;5.60;4.30;;;32.30;46.20;;;;;;4983514;28;20051;-75
2021/06/28 11:43:35;;;;;;;31.23;6.75;;;32.20;46.40;;;;;;4998972;28;20031;-75
2021/06/28 11:46:01;;;;;;;8.70;4.93;;;32.30;47.00;;;;;;4983164;28;20122;-75
2021/06/28 11:48:53;;;;;;;7.20;3.97;;;32.40;47.20;;;;;;4983650;28;20031;-75
2021/06/28 11:51:30;;;;;;;5.65;4.20;;;32.60;46.30;;;;;;4983638;28;20852;-75
2021/06/28 11:53:58;;;;;;;5.07;2.83;;;32.60;46.30;;;;;;4998332;28;20035;-75
2021/06/28 11:56:31;;;;;;;7.22;3.50;;;32.70;45.20;;;;;;4983642;28;20403;-75
2021/06/28 11:59:05;;;;;;;4.95;3.42;;;32.70;45.20;;;;;;4982980;28;20027;-75
2021/06/28 12:01:35;;;;;;;3.15;2.50;;;32.80;44.90;;;;;;4983083;28;20478;-75
2021/06/28 12:04:03;;;;;;;4.07;3.33;;;33.00;45.00;;;;;;4998587;28;20023;-75
2021/06/28 12:06:36;;;;;;;3.17;2.97;;;33.20;44.60;;;;;;4983014;28;20022;-75
2021/06/28 12:09:11;;;;;;;4.65;3.92;;;33.10;42.90;;;;;;4982855;28;20039;-75
2021/06/28 12:11:55;;;;;;;5.40;3.45;;;33.00;44.20;;;;;;4983236;28;20058;-75
2021/06/28 12:14:39;;;;;;;3.53;3.28;;;33.00;44.50;;;;;;4983135;28;20026;-75
2021/06/28 12:17:15;;;;;;;4.30;3.90;;;33.10;44.80;;;;;;4981884;28;20102;-75
2021/06/28 12:19:55;;;;;;;5.38;3.97;;;33.10;44.30;;;;;;4982265;28;20497;-75
2021/06/28 12:22:23;;;;;;;4.10;3.80;;;32.60;45.10;;;;;;4997032;28;20416;-75
2021/06/28 12:24:55;;;;;;;3.63;3.42;;;32.40;45.70;;;;;;4982711;28;20046;-75
2021/06/28 12:27:26;;;;;;;3.90;2.85;;;32.30;45.80;;;;;;4982653;28;20434;-75
2021/06/28 12:29:53;;;;;;;5.97;4.10;;;32.30;46.00;;;;;;4996855;28;20036;-75
2021/06/28 12:32:25;;;;;;;5.85;3.47;;;32.30;46.30;;;;;;4998900;28;20454;-75
2021/06/28 12:34:59;;;;;;;5.32;3.63;;;32.30;46.70;;;;;;4982498;28;20022;-75
2021/06/28 12:37:34;;;;;;;5.70;3.33;;;32.60;46.80;;;;;;4982014;28;20084;-75
2021/06/28 12:40:32;;;;;;;7.77;3.37;;;32.80;46.20;;;;;;4982731;28;20031;-75
2021/06/28 12:43:00;;;;;;;4.03;3.40;;;32.90;46.00;;;;;;4991773;28;20298;-75
2021/06/28 12:45:33;;;;;;;5.05;3.22;;;33.10;45.80;;;;;;4982315;28;20077;-75
2021/06/28 12:48:00;;;;;;;3.25;2.80;;;33.20;45.50;;;;;;4982285;28;20026;-75
2021/06/28 12:50:33;;;;;;;3.47;3.05;;;33.10;45.00;;;;;;4981182;28;20089;-75